VIP Ground Handling & Aviation Services

 

 
Airport

SAMOS (SMI)

Ground Handling Services – SMI/LGSM

VIP Ground Handling

State Ground Handling

Military Ground Handling

Slot & PPR Coordination

Fuel Arrangements

Crew Accommodation Arrangements

Crew Transportation

Customs & Immigration Assistance

Executive Terminal Services

Crew Lounge

Flight Planning, Weather Briefing and NOTAMs

Catering Arrangements

Security Services

Aircraft Maintenance

Airport Customs & Immigration

Concierge Services

VIP Meet & Greet

Helicopter Transfers

Chauffeur Services

Aircraft Charter

Yacht Charter

Hire & Rental

Entertainment & Hospitality

Health & Beauty

Delivery Services

Conference & Meeting rooms

Samos International Airport, Samos, 831 03

+30 210 35 33 331 (24/7)

+30 694 6200 300 (24/7)

greece@alphajetservices.com

Samos Airport
Airport Type
•Civil
Operating Hours
•Check NOTAMS / Contact us
Fuel Available
•JET A1 / AVGAS
Fire Category
•7
Approaches
•VOR / DME NDB
Available data for LGSM from the past 2 hours
SAMOS AIRPORT
Metar
LGSM 260950Z 02011KT 330V040 CAVOK 34/19 Q1009

09:50 UTC

Wind: 20° 11kt

Visibility:

Sky:

Temp: 34 deg C / 93.2 deg F

Dewpoint: 19 deg C / 66.2 deg F

Pressure: 1009 hPa

TAF
TAF LGSM 260800Z 2609/2618 01012KT 9999 FEW025 TEMPO 2609/2618 01012G22KT